sensor_id;sensor_type;location;lat;lon;timestamp;P1;durP1;ratioP1;P2;durP2;ratioP2
69623;SDS011;56843;52.020;5.670;2023-06-24T00:01:19;8.10;;;3.20;;
69623;SDS011;56843;52.020;5.670;2023-06-24T00:02:49;13.15;;;3.65;;
69623;SDS011;56843;52.020;5.670;2023-06-24T00:04:21;8.07;;;3.20;;
69623;SDS011;56843;52.020;5.670;2023-06-24T00:05:53;7.57;;;3.22;;
69623;SDS011;56843;52.020;5.670;2023-06-24T00:07:27;9.90;;;3.50;;
69623;SDS011;56843;52.020;5.670;2023-06-24T00:08:57;8.00;;;3.40;;
69623;SDS011;56843;52.020;5.670;2023-06-24T00:10:31;8.68;;;3.60;;
69623;SDS011;56843;52.020;5.670;2023-06-24T00:12:01;8.00;;;3.30;;
69623;SDS011;56843;52.020;5.670;2023-06-24T00:13:32;7.20;;;3.33;;
69623;SDS011;56843;52.020;5.670;2023-06-24T00:15:03;8.23;;;3.03;;
69623;SDS011;56843;52.020;5.670;2023-06-24T00:16:34;7.55;;;3.45;;
69623;SDS011;56843;52.020;5.670;2023-06-24T00:18:06;7.88;;;2.63;;
69623;SDS011;56843;52.020;5.670;2023-06-24T00:19:36;8.35;;;3.40;;
69623;SDS011;56843;52.020;5.670;2023-06-24T00:21:07;6.30;;;2.70;;
69623;SDS011;56843;52.020;5.670;2023-06-24T00:22:38;6.10;;;3.10;;
69623;SDS011;56843;52.020;5.670;2023-06-24T00:24:13;7.78;;;2.95;;
69623;SDS011;56843;52.020;5.670;2023-06-24T00:25:44;8.03;;;3.47;;
69623;SDS011;56843;52.020;5.670;2023-06-24T00:27:14;6.30;;;3.20;;
69623;SDS011;56843;52.020;5.670;2023-06-24T00:28:45;7.63;;;3.60;;
69623;SDS011;56843;52.020;5.670;2023-06-24T00:30:15;6.93;;;3.10;;
69623;SDS011;56843;52.020;5.670;2023-06-24T00:31:46;7.27;;;3.50;;
69623;SDS011;56843;52.020;5.670;2023-06-24T00:33:17;6.35;;;2.88;;
69623;SDS011;56843;52.020;5.670;2023-06-24T00:34:49;7.18;;;2.90;;
69623;SDS011;56843;52.020;5.670;2023-06-24T00:36:20;7.63;;;3.30;;
69623;SDS011;56843;52.020;5.670;2023-06-24T00:37:51;8.75;;;3.00;;
69623;SDS011;56843;52.020;5.670;2023-06-24T00:39:28;9.93;;;3.03;;
69623;SDS011;56843;52.020;5.670;2023-06-24T00:40:58;7.53;;;3.20;;
69623;SDS011;56843;52.020;5.670;2023-06-24T00:42:29;6.72;;;3.20;;
69623;SDS011;56843;52.020;5.670;2023-06-24T00:44:00;9.80;;;3.13;;
69623;SDS011;56843;52.020;5.670;2023-06-24T00:45:31;7.63;;;3.30;;
69623;SDS011;56843;52.020;5.670;2023-06-24T00:47:02;7.13;;;3.20;;
69623;SDS011;56843;52.020;5.670;2023-06-24T00:48:33;8.17;;;2.80;;
69623;SDS011;56843;52.020;5.670;2023-06-24T00:50:04;7.28;;;2.70;;
69623;SDS011;56843;52.020;5.670;2023-06-24T00:51:34;7.15;;;3.35;;
69623;SDS011;56843;52.020;5.670;2023-06-24T00:53:06;7.37;;;2.80;;
69623;SDS011;56843;52.020;5.670;2023-06-24T00:54:36;6.70;;;3.20;;
69623;SDS011;56843;52.020;5.670;2023-06-24T00:56:07;7.17;;;3.60;;
69623;SDS011;56843;52.020;5.670;2023-06-24T00:57:37;7.13;;;3.17;;
69623;SDS011;56843;52.020;5.670;2023-06-24T00:59:08;6.13;;;2.95;;
69623;SDS011;56843;52.020;5.670;2023-06-24T01:02:50;9.65;;;3.90;;
69623;SDS011;56843;52.020;5.670;2023-06-24T01:04:21;8.50;;;3.33;;
69623;SDS011;56843;52.020;5.670;2023-06-24T01:05:52;10.03;;;3.37;;
69623;SDS011;56843;52.020;5.670;2023-06-24T01:07:24;7.78;;;3.83;;
69623;SDS011;56843;52.020;5.670;2023-06-24T01:08:55;8.33;;;3.63;;
69623;SDS011;56843;52.020;5.670;2023-06-24T01:10:30;9.98;;;4.78;;
69623;SDS011;56843;52.020;5.670;2023-06-24T01:12:00;8.97;;;4.17;;
69623;SDS011;56843;52.020;5.670;2023-06-24T01:13:34;8.57;;;4.30;;
69623;SDS011;56843;52.020;5.670;2023-06-24T01:15:05;10.85;;;4.40;;
69623;SDS011;56843;52.020;5.670;2023-06-24T01:17:22;10.15;;;4.78;;
69623;SDS011;56843;52.020;5.670;2023-06-24T01:18:39;10.30;;;4.60;;
69623;SDS011;56843;52.020;5.670;2023-06-24T01:20:20;6.80;;;3.60;;
69623;SDS011;56843;52.020;5.670;2023-06-24T01:22:06;7.00;;;3.28;;
69623;SDS011;56843;52.020;5.670;2023-06-24T01:24:04;7.88;;;3.65;;
69623;SDS011;56843;52.020;5.670;2023-06-24T01:32:01;8.70;;;4.22;;
69623;SDS011;56843;52.020;5.670;2023-06-24T01:33:42;9.10;;;4.15;;
69623;SDS011;56843;52.020;5.670;2023-06-24T01:35:23;10.30;;;3.85;;
69623;SDS011;56843;52.020;5.670;2023-06-24T01:39:07;10.57;;;4.87;;
69623;SDS011;56843;52.020;5.670;2023-06-24T01:40:40;9.77;;;4.28;;
69623;SDS011;56843;52.020;5.670;2023-06-24T01:42:14;9.70;;;4.45;;
69623;SDS011;56843;52.020;5.670;2023-06-24T01:43:47;9.52;;;4.72;;
69623;SDS011;56843;52.020;5.670;2023-06-24T01:45:28;10.07;;;4.35;;
69623;SDS011;56843;52.020;5.670;2023-06-24T01:47:02;13.50;;;4.28;;
69623;SDS011;56843;52.020;5.670;2023-06-24T01:48:36;8.43;;;4.30;;
69623;SDS011;56843;52.020;5.670;2023-06-24T01:50:12;9.10;;;4.60;;
69623;SDS011;56843;52.020;5.670;2023-06-24T01:51:43;9.07;;;4.53;;
69623;SDS011;56843;52.020;5.670;2023-06-24T01:53:19;10.20;;;4.17;;
69623;SDS011;56843;52.020;5.670;2023-06-24T01:54:51;9.10;;;4.40;;
69623;SDS011;56843;52.020;5.670;2023-06-24T01:56:23;8.65;;;4.65;;
69623;SDS011;56843;52.020;5.670;2023-06-24T01:57:57;8.98;;;4.53;;
69623;SDS011;56843;52.020;5.670;2023-06-24T01:59:29;10.43;;;4.55;;
69623;SDS011;56843;52.020;5.670;2023-06-24T02:01:02;9.23;;;5.00;;
69623;SDS011;56843;52.020;5.670;2023-06-24T02:02:34;9.23;;;4.47;;
69623;SDS011;56843;52.020;5.670;2023-06-24T02:04:08;12.13;;;4.38;;
69623;SDS011;56843;52.020;5.670;2023-06-24T02:05:40;10.63;;;4.97;;
69623;SDS011;56843;52.020;5.670;2023-06-24T02:07:11;9.82;;;4.18;;
69623;SDS011;56843;52.020;5.670;2023-06-24T02:08:43;10.77;;;4.53;;
69623;SDS011;56843;52.020;5.670;2023-06-24T02:10:18;10.53;;;4.60;;
69623;SDS011;56843;52.020;5.670;2023-06-24T02:11:50;9.10;;;4.35;;
69623;SDS011;56843;52.020;5.670;2023-06-24T02:13:21;10.40;;;4.35;;
69623;SDS011;56843;52.020;5.670;2023-06-24T02:14:52;10.23;;;4.10;;
69623;SDS011;56843;52.020;5.670;2023-06-24T02:16:25;12.98;;;4.30;;
69623;SDS011;56843;52.020;5.670;2023-06-24T02:17:58;13.25;;;4.55;;
69623;SDS011;56843;52.020;5.670;2023-06-24T02:19:32;8.40;;;3.85;;
69623;SDS011;56843;52.020;5.670;2023-06-24T02:21:04;10.38;;;4.53;;
69623;SDS011;56843;52.020;5.670;2023-06-24T02:22:36;9.63;;;4.05;;
69623;SDS011;56843;52.020;5.670;2023-06-24T02:24:09;11.40;;;4.50;;
69623;SDS011;56843;52.020;5.670;2023-06-24T02:25:41;12.47;;;4.70;;
69623;SDS011;56843;52.020;5.670;2023-06-24T02:27:13;9.55;;;4.65;;
69623;SDS011;56843;52.020;5.670;2023-06-24T02:28:44;11.10;;;4.90;;
69623;SDS011;56843;52.020;5.670;2023-06-24T02:30:16;11.35;;;4.70;;
69623;SDS011;56843;52.020;5.670;2023-06-24T02:31:47;11.73;;;5.00;;
69623;SDS011;56843;52.020;5.670;2023-06-24T02:33:17;12.53;;;4.53;;
69623;SDS011;56843;52.020;5.670;2023-06-24T02:34:49;9.85;;;4.88;;
69623;SDS011;56843;52.020;5.670;2023-06-24T02:36:19;10.40;;;4.70;;
69623;SDS011;56843;52.020;5.670;2023-06-24T02:37:50;13.10;;;4.97;;
69623;SDS011;56843;52.020;5.670;2023-06-24T02:39:21;11.23;;;4.60;;
69623;SDS011;56843;52.020;5.670;2023-06-24T02:40:54;8.87;;;4.63;;
69623;SDS011;56843;52.020;5.670;2023-06-24T02:42:24;8.77;;;4.97;;
69623;SDS011;56843;52.020;5.670;2023-06-24T02:43:55;11.47;;;4.93;;
69623;SDS011;56843;52.020;5.670;2023-06-24T02:45:26;10.93;;;4.80;;
69623;SDS011;56843;52.020;5.670;2023-06-24T02:46:57;10.43;;;5.50;;
69623;SDS011;56843;52.020;5.670;2023-06-24T02:48:28;10.73;;;4.78;;
69623;SDS011;56843;52.020;5.670;2023-06-24T02:50:01;14.23;;;5.80;;
69623;SDS011;56843;52.020;5.670;2023-06-24T02:51:35;12.93;;;5.20;;
69623;SDS011;56843;52.020;5.670;2023-06-24T02:53:07;11.00;;;5.13;;
69623;SDS011;56843;52.020;5.670;2023-06-24T02:54:41;12.10;;;4.72;;
69623;SDS011;56843;52.020;5.670;2023-06-24T02:56:30;9.63;;;4.75;;
69623;SDS011;56843;52.020;5.670;2023-06-24T02:58:01;10.23;;;4.78;;
69623;SDS011;56843;52.020;5.670;2023-06-24T02:59:51;10.35;;;5.10;;
69623;SDS011;56843;52.020;5.670;2023-06-24T03:01:23;17.27;;;6.40;;
69623;SDS011;56843;52.020;5.670;2023-06-24T03:02:57;10.38;;;4.90;;
69623;SDS011;56843;52.020;5.670;2023-06-24T03:04:28;11.50;;;5.10;;
69623;SDS011;56843;52.020;5.670;2023-06-24T03:05:59;12.03;;;5.60;;
69623;SDS011;56843;52.020;5.670;2023-06-24T03:07:34;12.63;;;5.70;;
69623;SDS011;56843;52.020;5.670;2023-06-24T03:09:06;16.58;;;5.90;;
69623;SDS011;56843;52.020;5.670;2023-06-24T03:10:39;12.52;;;5.93;;
69623;SDS011;56843;52.020;5.670;2023-06-24T03:12:17;11.27;;;5.88;;
69623;SDS011;56843;52.020;5.670;2023-06-24T03:13:48;13.37;;;5.93;;
69623;SDS011;56843;52.020;5.670;2023-06-24T03:15:27;10.60;;;5.68;;
69623;SDS011;56843;52.020;5.670;2023-06-24T03:16:58;14.23;;;5.55;;
69623;SDS011;56843;52.020;5.670;2023-06-24T03:18:30;10.35;;;5.05;;
69623;SDS011;56843;52.020;5.670;2023-06-24T03:20:01;11.60;;;5.57;;
69623;SDS011;56843;52.020;5.670;2023-06-24T03:21:33;10.88;;;5.47;;
69623;SDS011;56843;52.020;5.670;2023-06-24T03:23:11;12.10;;;6.32;;
69623;SDS011;56843;52.020;5.670;2023-06-24T03:24:43;14.38;;;5.93;;
69623;SDS011;56843;52.020;5.670;2023-06-24T03:26:13;12.50;;;5.60;;
69623;SDS011;56843;52.020;5.670;2023-06-24T03:27:46;11.90;;;6.22;;
69623;SDS011;56843;52.020;5.670;2023-06-24T03:29:16;12.30;;;6.07;;
69623;SDS011;56843;52.020;5.670;2023-06-24T03:31:03;12.03;;;5.87;;
69623;SDS011;56843;52.020;5.670;2023-06-24T03:32:33;13.35;;;5.80;;
69623;SDS011;56843;52.020;5.670;2023-06-24T03:34:05;12.10;;;5.90;;
69623;SDS011;56843;52.020;5.670;2023-06-24T03:35:36;12.83;;;6.30;;
69623;SDS011;56843;52.020;5.670;2023-06-24T03:37:09;11.45;;;5.85;;
69623;SDS011;56843;52.020;5.670;2023-06-24T03:38:43;15.95;;;5.88;;
69623;SDS011;56843;52.020;5.670;2023-06-24T03:40:14;13.40;;;5.47;;
69623;SDS011;56843;52.020;5.670;2023-06-24T03:41:44;12.10;;;6.27;;
69623;SDS011;56843;52.020;5.670;2023-06-24T03:43:16;11.97;;;5.23;;
69623;SDS011;56843;52.020;5.670;2023-06-24T03:44:46;14.48;;;6.15;;
69623;SDS011;56843;52.020;5.670;2023-06-24T03:46:17;13.73;;;6.50;;
69623;SDS011;56843;52.020;5.670;2023-06-24T03:47:48;15.63;;;5.72;;
69623;SDS011;56843;52.020;5.670;2023-06-24T03:49:18;12.43;;;5.97;;
69623;SDS011;56843;52.020;5.670;2023-06-24T03:50:49;12.13;;;6.20;;
69623;SDS011;56843;52.020;5.670;2023-06-24T03:52:19;14.30;;;6.43;;
69623;SDS011;56843;52.020;5.670;2023-06-24T03:53:50;13.37;;;6.07;;
69623;SDS011;56843;52.020;5.670;2023-06-24T03:55:21;11.45;;;5.65;;
69623;SDS011;56843;52.020;5.670;2023-06-24T03:56:52;13.03;;;6.03;;
69623;SDS011;56843;52.020;5.670;2023-06-24T03:58:22;12.80;;;6.07;;
69623;SDS011;56843;52.020;5.670;2023-06-24T03:59:53;12.57;;;5.65;;
69623;SDS011;56843;52.020;5.670;2023-06-24T04:01:25;12.60;;;6.07;;
69623;SDS011;56843;52.020;5.670;2023-06-24T04:02:55;14.93;;;6.47;;
69623;SDS011;56843;52.020;5.670;2023-06-24T04:04:26;19.07;;;6.93;;
69623;SDS011;56843;52.020;5.670;2023-06-24T04:05:56;12.90;;;5.73;;
69623;SDS011;56843;52.020;5.670;2023-06-24T04:07:27;12.82;;;6.45;;
69623;SDS011;56843;52.020;5.670;2023-06-24T04:09:00;15.90;;;6.13;;
69623;SDS011;56843;52.020;5.670;2023-06-24T04:10:32;14.50;;;6.78;;
69623;SDS011;56843;52.020;5.670;2023-06-24T04:12:03;13.33;;;6.07;;
69623;SDS011;56843;52.020;5.670;2023-06-24T04:13:38;14.32;;;6.05;;
69623;SDS011;56843;52.020;5.670;2023-06-24T04:15:09;12.80;;;5.80;;
69623;SDS011;56843;52.020;5.670;2023-06-24T04:16:40;11.77;;;6.05;;
69623;SDS011;56843;52.020;5.670;2023-06-24T04:18:10;11.97;;;5.50;;
69623;SDS011;56843;52.020;5.670;2023-06-24T04:19:41;12.65;;;5.68;;
69623;SDS011;56843;52.020;5.670;2023-06-24T04:21:12;13.95;;;6.03;;
69623;SDS011;56843;52.020;5.670;2023-06-24T04:22:44;14.73;;;6.50;;
69623;SDS011;56843;52.020;5.670;2023-06-24T04:24:15;12.20;;;5.93;;
69623;SDS011;56843;52.020;5.670;2023-06-24T04:25:45;15.57;;;5.83;;
69623;SDS011;56843;52.020;5.670;2023-06-24T04:27:16;12.77;;;5.05;;
69623;SDS011;56843;52.020;5.670;2023-06-24T04:28:47;11.03;;;5.37;;
69623;SDS011;56843;52.020;5.670;2023-06-24T04:30:17;10.45;;;5.13;;
69623;SDS011;56843;52.020;5.670;2023-06-24T04:31:48;12.53;;;5.37;;
69623;SDS011;56843;52.020;5.670;2023-06-24T04:33:18;13.10;;;5.63;;
69623;SDS011;56843;52.020;5.670;2023-06-24T04:34:49;11.18;;;5.22;;
69623;SDS011;56843;52.020;5.670;2023-06-24T04:36:20;13.65;;;5.45;;
69623;SDS011;56843;52.020;5.670;2023-06-24T04:37:51;12.30;;;4.85;;
69623;SDS011;56843;52.020;5.670;2023-06-24T04:39:22;12.27;;;5.23;;
69623;SDS011;56843;52.020;5.670;2023-06-24T04:40:52;10.30;;;5.50;;
69623;SDS011;56843;52.020;5.670;2023-06-24T04:42:23;11.70;;;5.68;;
69623;SDS011;56843;52.020;5.670;2023-06-24T04:43:54;10.15;;;4.82;;
69623;SDS011;56843;52.020;5.670;2023-06-24T04:45:24;12.37;;;5.10;;
69623;SDS011;56843;52.020;5.670;2023-06-24T04:46:55;10.90;;;4.97;;
69623;SDS011;56843;52.020;5.670;2023-06-24T04:48:26;10.17;;;4.93;;
69623;SDS011;56843;52.020;5.670;2023-06-24T04:49:56;10.60;;;4.65;;
69623;SDS011;56843;52.020;5.670;2023-06-24T04:51:27;12.33;;;5.20;;
69623;SDS011;56843;52.020;5.670;2023-06-24T04:52:57;13.68;;;4.65;;
69623;SDS011;56843;52.020;5.670;2023-06-24T04:54:28;9.47;;;4.73;;
69623;SDS011;56843;52.020;5.670;2023-06-24T04:55:58;10.60;;;4.70;;
69623;SDS011;56843;52.020;5.670;2023-06-24T04:57:30;11.93;;;4.50;;
69623;SDS011;56843;52.020;5.670;2023-06-24T04:59:01;11.33;;;4.40;;
69623;SDS011;56843;52.020;5.670;2023-06-24T05:00:32;11.30;;;4.30;;
69623;SDS011;56843;52.020;5.670;2023-06-24T05:02:02;12.97;;;4.10;;
69623;SDS011;56843;52.020;5.670;2023-06-24T05:03:33;10.60;;;3.88;;
69623;SDS011;56843;52.020;5.670;2023-06-24T05:05:04;8.57;;;4.00;;
69623;SDS011;56843;52.020;5.670;2023-06-24T05:06:35;11.95;;;4.15;;
69623;SDS011;56843;52.020;5.670;2023-06-24T05:08:06;10.10;;;3.80;;
69623;SDS011;56843;52.020;5.670;2023-06-24T05:09:36;9.83;;;4.10;;
69623;SDS011;56843;52.020;5.670;2023-06-24T05:11:07;10.35;;;4.30;;
69623;SDS011;56843;52.020;5.670;2023-06-24T05:12:38;9.27;;;3.93;;
69623;SDS011;56843;52.020;5.670;2023-06-24T05:14:09;10.10;;;3.77;;
69623;SDS011;56843;52.020;5.670;2023-06-24T05:15:40;10.18;;;4.18;;
69623;SDS011;56843;52.020;5.670;2023-06-24T05:17:10;9.88;;;4.32;;
69623;SDS011;56843;52.020;5.670;2023-06-24T05:18:41;7.93;;;3.50;;
69623;SDS011;56843;52.020;5.670;2023-06-24T05:20:12;9.63;;;3.77;;
69623;SDS011;56843;52.020;5.670;2023-06-24T05:21:42;8.73;;;3.83;;
69623;SDS011;56843;52.020;5.670;2023-06-24T05:23:12;7.17;;;2.97;;
69623;SDS011;56843;52.020;5.670;2023-06-24T05:24:43;11.07;;;4.30;;
69623;SDS011;56843;52.020;5.670;2023-06-24T05:26:14;11.63;;;4.43;;
69623;SDS011;56843;52.020;5.670;2023-06-24T05:27:44;8.43;;;3.90;;
69623;SDS011;56843;52.020;5.670;2023-06-24T05:29:15;10.43;;;4.47;;
69623;SDS011;56843;52.020;5.670;2023-06-24T05:30:46;7.82;;;3.50;;
69623;SDS011;56843;52.020;5.670;2023-06-24T05:32:16;9.03;;;3.43;;
69623;SDS011;56843;52.020;5.670;2023-06-24T05:33:50;9.75;;;3.80;;
69623;SDS011;56843;52.020;5.670;2023-06-24T05:35:20;10.43;;;4.10;;
69623;SDS011;56843;52.020;5.670;2023-06-24T05:36:50;12.63;;;4.53;;
69623;SDS011;56843;52.020;5.670;2023-06-24T05:38:21;9.83;;;4.23;;
69623;SDS011;56843;52.020;5.670;2023-06-24T05:39:52;10.75;;;4.25;;
69623;SDS011;56843;52.020;5.670;2023-06-24T05:41:23;7.90;;;3.80;;
69623;SDS011;56843;52.020;5.670;2023-06-24T05:42:53;11.00;;;3.90;;
69623;SDS011;56843;52.020;5.670;2023-06-24T05:44:24;15.80;;;4.27;;
69623;SDS011;56843;52.020;5.670;2023-06-24T05:45:54;9.13;;;4.15;;
69623;SDS011;56843;52.020;5.670;2023-06-24T05:47:25;11.47;;;4.27;;
69623;SDS011;56843;52.020;5.670;2023-06-24T05:48:55;9.13;;;4.17;;
69623;SDS011;56843;52.020;5.670;2023-06-24T05:50:26;9.60;;;4.40;;
69623;SDS011;56843;52.020;5.670;2023-06-24T05:51:56;8.63;;;3.00;;
69623;SDS011;56843;52.020;5.670;2023-06-24T05:53:27;8.48;;;3.78;;
69623;SDS011;56843;52.020;5.670;2023-06-24T05:54:58;10.87;;;3.47;;
69623;SDS011;56843;52.020;5.670;2023-06-24T05:56:28;9.75;;;4.72;;
69623;SDS011;56843;52.020;5.670;2023-06-24T05:57:59;7.57;;;3.37;;
69623;SDS011;56843;52.020;5.670;2023-06-24T05:59:29;9.45;;;4.72;;
69623;SDS011;56843;52.020;5.670;2023-06-24T06:01:00;9.90;;;4.33;;
69623;SDS011;56843;52.020;5.670;2023-06-24T06:02:31;9.85;;;4.82;;
69623;SDS011;56843;52.020;5.670;2023-06-24T06:04:02;5.90;;;2.23;;
69623;SDS011;56843;52.020;5.670;2023-06-24T06:05:32;6.75;;;2.42;;
69623;SDS011;56843;52.020;5.670;2023-06-24T06:07:03;8.10;;;2.37;;
69623;SDS011;56843;52.020;5.670;2023-06-24T06:08:34;6.03;;;2.13;;
69623;SDS011;56843;52.020;5.670;2023-06-24T06:10:05;5.20;;;1.00;;
69623;SDS011;56843;52.020;5.670;2023-06-24T06:11:36;8.90;;;2.05;;
69623;SDS011;56843;52.020;5.670;2023-06-24T06:13:07;6.90;;;1.80;;
69623;SDS011;56843;52.020;5.670;2023-06-24T06:14:37;4.63;;;1.73;;
69623;SDS011;56843;52.020;5.670;2023-06-24T06:16:08;8.33;;;2.53;;
69623;SDS011;56843;52.020;5.670;2023-06-24T06:17:38;6.97;;;1.50;;
69623;SDS011;56843;52.020;5.670;2023-06-24T06:19:09;6.13;;;1.80;;
69623;SDS011;56843;52.020;5.670;2023-06-24T06:20:39;6.33;;;1.70;;
69623;SDS011;56843;52.020;5.670;2023-06-24T06:22:09;8.37;;;3.03;;
69623;SDS011;56843;52.020;5.670;2023-06-24T06:23:40;4.10;;;1.60;;
69623;SDS011;56843;52.020;5.670;2023-06-24T06:25:10;5.80;;;2.03;;
69623;SDS011;56843;52.020;5.670;2023-06-24T06:26:42;5.20;;;1.80;;
69623;SDS011;56843;52.020;5.670;2023-06-24T06:28:13;4.40;;;1.53;;
69623;SDS011;56843;52.020;5.670;2023-06-24T06:29:44;4.83;;;1.57;;
69623;SDS011;56843;52.020;5.670;2023-06-24T06:31:14;4.83;;;1.47;;
69623;SDS011;56843;52.020;5.670;2023-06-24T06:32:45;5.30;;;2.03;;
69623;SDS011;56843;52.020;5.670;2023-06-24T06:34:16;4.67;;;1.80;;
69623;SDS011;56843;52.020;5.670;2023-06-24T06:35:46;8.23;;;2.25;;
69623;SDS011;56843;52.020;5.670;2023-06-24T06:37:16;3.57;;;1.47;;
69623;SDS011;56843;52.020;5.670;2023-06-24T06:38:47;5.03;;;1.50;;
69623;SDS011;56843;52.020;5.670;2023-06-24T06:40:18;3.73;;;1.40;;
69623;SDS011;56843;52.020;5.670;2023-06-24T06:41:49;3.63;;;1.27;;
69623;SDS011;56843;52.020;5.670;2023-06-24T06:43:20;3.95;;;1.40;;
69623;SDS011;56843;52.020;5.670;2023-06-24T06:44:51;4.70;;;1.60;;
69623;SDS011;56843;52.020;5.670;2023-06-24T06:46:22;6.63;;;1.10;;
69623;SDS011;56843;52.020;5.670;2023-06-24T06:47:52;3.70;;;1.15;;
69623;SDS011;56843;52.020;5.670;2023-06-24T06:49:23;3.83;;;1.20;;
69623;SDS011;56843;52.020;5.670;2023-06-24T06:50:53;3.28;;;1.00;;
69623;SDS011;56843;52.020;5.670;2023-06-24T06:52:24;3.37;;;1.20;;
69623;SDS011;56843;52.020;5.670;2023-06-24T06:53:54;2.57;;;0.90;;
69623;SDS011;56843;52.020;5.670;2023-06-24T06:55:25;4.60;;;1.42;;
69623;SDS011;56843;52.020;5.670;2023-06-24T06:57:02;2.80;;;0.93;;
69623;SDS011;56843;52.020;5.670;2023-06-24T06:58:34;4.20;;;0.97;;
69623;SDS011;56843;52.020;5.670;2023-06-24T07:00:04;4.60;;;1.40;;
69623;SDS011;56843;52.020;5.670;2023-06-24T07:01:35;3.30;;;1.30;;
69623;SDS011;56843;52.020;5.670;2023-06-24T07:03:05;3.00;;;1.30;;
69623;SDS011;56843;52.020;5.670;2023-06-24T07:04:36;3.87;;;1.30;;
69623;SDS011;56843;52.020;5.670;2023-06-24T07:06:06;3.70;;;1.25;;
69623;SDS011;56843;52.020;5.670;2023-06-24T07:07:37;4.37;;;1.60;;
69623;SDS011;56843;52.020;5.670;2023-06-24T07:09:08;4.38;;;1.25;;
69623;SDS011;56843;52.020;5.670;2023-06-24T07:10:39;3.92;;;1.10;;
69623;SDS011;56843;52.020;5.670;2023-06-24T07:12:10;4.63;;;1.00;;
69623;SDS011;56843;52.020;5.670;2023-06-24T07:13:40;5.20;;;1.57;;
69623;SDS011;56843;52.020;5.670;2023-06-24T07:15:11;7.57;;;1.73;;
69623;SDS011;56843;52.020;5.670;2023-06-24T07:16:42;3.97;;;0.73;;
69623;SDS011;56843;52.020;5.670;2023-06-24T07:18:12;2.70;;;1.00;;
69623;SDS011;56843;52.020;5.670;2023-06-24T07:19:43;3.50;;;1.10;;
69623;SDS011;56843;52.020;5.670;2023-06-24T07:21:13;3.87;;;1.20;;
69623;SDS011;56843;52.020;5.670;2023-06-24T07:22:43;3.43;;;1.00;;
69623;SDS011;56843;52.020;5.670;2023-06-24T07:24:14;5.13;;;1.53;;
69623;SDS011;56843;52.020;5.670;2023-06-24T07:25:44;2.83;;;1.00;;
69623;SDS011;56843;52.020;5.670;2023-06-24T07:27:15;2.33;;;0.90;;
69623;SDS011;56843;52.020;5.670;2023-06-24T07:28:46;5.03;;;1.33;;
69623;SDS011;56843;52.020;5.670;2023-06-24T07:30:16;3.42;;;1.20;;
69623;SDS011;56843;52.020;5.670;2023-06-24T07:31:47;2.67;;;1.20;;
69623;SDS011;56843;52.020;5.670;2023-06-24T07:33:17;6.03;;;1.23;;
69623;SDS011;56843;52.020;5.670;2023-06-24T07:34:48;3.10;;;1.20;;
69623;SDS011;56843;52.020;5.670;2023-06-24T07:36:18;3.03;;;0.90;;
69623;SDS011;56843;52.020;5.670;2023-06-24T07:37:49;2.15;;;0.80;;
69623;SDS011;56843;52.020;5.670;2023-06-24T07:39:20;3.00;;;1.10;;
69623;SDS011;56843;52.020;5.670;2023-06-24T07:40:50;2.88;;;0.90;;
69623;SDS011;56843;52.020;5.670;2023-06-24T07:42:21;2.47;;;0.93;;
69623;SDS011;56843;52.020;5.670;2023-06-24T07:43:51;3.60;;;0.60;;
69623;SDS011;56843;52.020;5.670;2023-06-24T07:45:22;2.22;;;0.80;;
69623;SDS011;56843;52.020;5.670;2023-06-24T07:46:53;3.17;;;1.10;;
69623;SDS011;56843;52.020;5.670;2023-06-24T07:48:23;5.53;;;1.50;;
69623;SDS011;56843;52.020;5.670;2023-06-24T07:49:54;9.57;;;1.23;;
69623;SDS011;56843;52.020;5.670;2023-06-24T07:51:24;11.55;;;1.63;;
69623;SDS011;56843;52.020;5.670;2023-06-24T07:52:55;7.13;;;1.23;;
69623;SDS011;56843;52.020;5.670;2023-06-24T07:54:25;5.30;;;1.50;;
69623;SDS011;56843;52.020;5.670;2023-06-24T07:55:56;6.07;;;1.45;;
69623;SDS011;56843;52.020;5.670;2023-06-24T07:57:26;8.30;;;1.63;;
69623;SDS011;56843;52.020;5.670;2023-06-24T07:58:57;4.10;;;1.27;;
69623;SDS011;56843;52.020;5.670;2023-06-24T08:00:28;3.93;;;1.40;;
69623;SDS011;56843;52.020;5.670;2023-06-24T08:01:59;5.53;;;1.60;;
69623;SDS011;56843;52.020;5.670;2023-06-24T08:03:29;3.60;;;1.10;;
69623;SDS011;56843;52.020;5.670;2023-06-24T08:04:59;6.33;;;1.57;;
69623;SDS011;56843;52.020;5.670;2023-06-24T08:06:30;5.87;;;1.10;;
69623;SDS011;56843;52.020;5.670;2023-06-24T08:08:01;6.53;;;1.20;;
69623;SDS011;56843;52.020;5.670;2023-06-24T08:09:32;3.47;;;1.30;;
69623;SDS011;56843;52.020;5.670;2023-06-24T08:11:03;5.87;;;1.23;;
69623;SDS011;56843;52.020;5.670;2023-06-24T08:12:33;7.18;;;1.30;;
69623;SDS011;56843;52.020;5.670;2023-06-24T08:14:04;3.77;;;1.37;;
69623;SDS011;56843;52.020;5.670;2023-06-24T08:15:34;4.13;;;1.20;;
69623;SDS011;56843;52.020;5.670;2023-06-24T08:17:05;4.00;;;1.42;;
69623;SDS011;56843;52.020;5.670;2023-06-24T08:18:36;4.13;;;1.67;;
69623;SDS011;56843;52.020;5.670;2023-06-24T08:20:07;3.20;;;1.05;;
69623;SDS011;56843;52.020;5.670;2023-06-24T08:21:37;3.30;;;1.20;;
69623;SDS011;56843;52.020;5.670;2023-06-24T08:23:08;4.40;;;1.30;;
69623;SDS011;56843;52.020;5.670;2023-06-24T08:24:39;4.67;;;1.40;;
69623;SDS011;56843;52.020;5.670;2023-06-24T08:26:10;2.30;;;0.90;;
69623;SDS011;56843;52.020;5.670;2023-06-24T08:27:40;3.93;;;1.20;;
69623;SDS011;56843;52.020;5.670;2023-06-24T08:29:11;3.42;;;1.13;;
69623;SDS011;56843;52.020;5.670;2023-06-24T08:30:42;2.80;;;0.90;;
69623;SDS011;56843;52.020;5.670;2023-06-24T08:32:12;4.00;;;1.00;;
69623;SDS011;56843;52.020;5.670;2023-06-24T08:33:43;3.10;;;1.07;;
69623;SDS011;56843;52.020;5.670;2023-06-24T08:35:15;4.25;;;1.00;;
69623;SDS011;56843;52.020;5.670;2023-06-24T08:36:46;2.10;;;0.80;;
69623;SDS011;56843;52.020;5.670;2023-06-24T08:38:16;2.63;;;0.90;;
69623;SDS011;56843;52.020;5.670;2023-06-24T08:39:47;2.53;;;0.80;;
69623;SDS011;56843;52.020;5.670;2023-06-24T08:41:17;3.80;;;1.23;;
69623;SDS011;56843;52.020;5.670;2023-06-24T08:42:48;3.45;;;0.90;;
69623;SDS011;56843;52.020;5.670;2023-06-24T08:44:18;2.30;;;0.90;;
69623;SDS011;56843;52.020;5.670;2023-06-24T08:45:49;2.75;;;0.95;;
69623;SDS011;56843;52.020;5.670;2023-06-24T08:47:20;2.30;;;0.87;;
69623;SDS011;56843;52.020;5.670;2023-06-24T08:48:54;3.20;;;1.00;;
69623;SDS011;56843;52.020;5.670;2023-06-24T08:50:35;2.20;;;0.90;;
69623;SDS011;56843;52.020;5.670;2023-06-24T08:52:08;2.83;;;0.73;;
69623;SDS011;56843;52.020;5.670;2023-06-24T08:53:43;2.53;;;1.10;;
69623;SDS011;56843;52.020;5.670;2023-06-24T08:55:16;2.38;;;0.90;;
69623;SDS011;56843;52.020;5.670;2023-06-24T08:56:47;2.58;;;1.10;;
69623;SDS011;56843;52.020;5.670;2023-06-24T08:58:18;3.42;;;1.30;;
69623;SDS011;56843;52.020;5.670;2023-06-24T08:59:48;2.30;;;0.93;;
69623;SDS011;56843;52.020;5.670;2023-06-24T09:01:19;3.73;;;0.90;;
69623;SDS011;56843;52.020;5.670;2023-06-24T09:02:49;2.60;;;1.10;;
69623;SDS011;56843;52.020;5.670;2023-06-24T09:04:20;3.53;;;1.30;;
69623;SDS011;56843;52.020;5.670;2023-06-24T09:05:50;2.93;;;1.20;;
69623;SDS011;56843;52.020;5.670;2023-06-24T09:07:27;2.25;;;0.98;;
69623;SDS011;56843;52.020;5.670;2023-06-24T09:08:58;2.38;;;1.00;;
69623;SDS011;56843;52.020;5.670;2023-06-24T09:10:32;2.03;;;0.83;;
69623;SDS011;56843;52.020;5.670;2023-06-24T09:12:04;2.97;;;1.13;;
69623;SDS011;56843;52.020;5.670;2023-06-24T09:13:41;2.60;;;0.88;;
69623;SDS011;56843;52.020;5.670;2023-06-24T09:15:14;2.67;;;0.95;;
69623;SDS011;56843;52.020;5.670;2023-06-24T09:16:53;2.60;;;1.00;;
69623;SDS011;56843;52.020;5.670;2023-06-24T09:18:30;2.25;;;0.98;;
69623;SDS011;56843;52.020;5.670;2023-06-24T09:20:04;2.22;;;0.90;;
69623;SDS011;56843;52.020;5.670;2023-06-24T09:21:35;3.88;;;0.98;;